createdAt,value
2016-03-14T00:00:57.636Z,1032.82
2016-03-14T00:01:57.420Z,1032.85
2016-03-14T00:02:57.407Z,1032.86
2016-03-14T00:03:57.394Z,1032.8
2016-03-14T00:04:57.397Z,1032.81
2016-03-14T00:05:57.478Z,1032.78
2016-03-14T00:07:57.373Z,1032.76
2016-03-14T00:08:57.361Z,1032.77
2016-03-14T00:09:57.348Z,1032.73
2016-03-14T00:10:57.335Z,1032.75
2016-03-14T00:11:57.572Z,1032.73
2016-03-14T00:12:57.309Z,1032.74
2016-03-14T00:13:57.296Z,1032.76
2016-03-14T00:14:57.299Z,1032.74
2016-03-14T00:15:57.286Z,1032.72
2016-03-14T00:16:57.272Z,1032.7
2016-03-14T00:17:57.261Z,1032.68
2016-03-14T00:18:57.247Z,1032.71
2016-03-14T00:19:57.250Z,1032.67
2016-03-14T00:20:57.237Z,1032.68
2016-03-14T00:21:57.224Z,1032.69
2016-03-14T00:22:57.226Z,1032.71
2016-03-14T00:23:57.198Z,1032.72
2016-03-14T00:24:57.201Z,1032.69
2016-03-14T00:25:57.187Z,1032.71
2016-03-14T00:26:57.174Z,1032.7
2016-03-14T00:27:57.162Z,1032.69
2016-03-14T00:28:57.165Z,1032.66
2016-03-14T00:29:57.151Z,1032.65
2016-03-14T00:30:57.139Z,1032.64
2016-03-14T00:31:57.126Z,1032.71
2016-03-14T00:32:57.144Z,1032.74
2016-03-14T00:33:57.100Z,1032.72
2016-03-14T00:34:57.103Z,1032.69
2016-03-14T00:35:57.089Z,1032.67
2016-03-14T00:36:57.077Z,1032.64
2016-03-14T00:37:57.064Z,1032.65
2016-03-14T00:38:57.051Z,1032.69
2016-03-14T00:39:57.053Z,1032.67
2016-03-14T00:40:57.041Z,1032.69
2016-03-14T00:41:57.043Z,1032.68
2016-03-14T00:42:57.014Z,1032.76
2016-03-14T00:43:57.017Z,1032.81
2016-03-14T00:44:57.005Z,1032.79
2016-03-14T00:45:56.991Z,1032.81
2016-03-14T00:46:56.978Z,1032.81
2016-03-14T00:47:56.981Z,1032.83
2016-03-14T00:48:56.968Z,1032.86
2016-03-14T00:49:56.955Z,1032.88
2016-03-14T00:50:56.943Z,1032.86
2016-03-14T00:51:56.929Z,1032.88
2016-03-14T00:52:56.916Z,1032.87
2016-03-14T00:53:56.919Z,1032.81
2016-03-14T00:54:56.906Z,1032.82
2016-03-14T00:55:56.893Z,1032.78
2016-03-14T00:56:56.880Z,1032.78
2016-03-14T00:57:56.868Z,1032.75
2016-03-14T00:58:56.864Z,1032.74
2016-03-14T00:59:56.983Z,1032.73
2016-03-14T01:00:57.877Z,1032.75
2016-03-14T01:01:56.934Z,1032.76
2016-03-14T01:02:56.828Z,1032.72
2016-03-14T01:03:56.815Z,1032.73
2016-03-14T01:04:56.802Z,1032.7
2016-03-14T01:05:56.852Z,1032.71
2016-03-14T01:06:56.933Z,1032.7
2016-03-14T01:07:56.779Z,1032.75
2016-03-14T01:08:56.767Z,1032.7
2016-03-14T01:09:56.831Z,1032.75
2016-03-14T01:10:56.741Z,1032.75
2016-03-14T01:11:56.727Z,1032.76
2016-03-14T01:12:56.714Z,1032.72
2016-03-14T01:13:56.702Z,1032.74
2016-03-14T01:14:56.704Z,1032.7
2016-03-14T01:15:56.691Z,1032.64
2016-03-14T01:16:56.678Z,1032.69
2016-03-14T01:17:56.665Z,1032.67
2016-03-14T01:18:56.653Z,1032.69
2016-03-14T01:19:56.655Z,1032.67
2016-03-14T01:20:57.251Z,1032.68
2016-03-14T01:21:56.629Z,1032.67
2016-03-14T01:22:56.616Z,1032.65
2016-03-14T01:23:56.603Z,1032.66
2016-03-14T01:24:56.590Z,1032.65
2016-03-14T01:25:56.593Z,1032.63
2016-03-14T01:26:56.580Z,1032.58
2016-03-14T01:27:56.567Z,1032.59
2016-03-14T01:28:56.554Z,1032.59
2016-03-14T01:29:56.542Z,1032.59
2016-03-14T01:30:56.560Z,1032.55
2016-03-14T01:31:56.515Z,1032.56
2016-03-14T01:32:56.518Z,1032.54
2016-03-14T01:33:56.489Z,1032.54
2016-03-14T01:34:56.492Z,1032.56
2016-03-14T01:35:56.480Z,1032.57
2016-03-14T01:36:57.107Z,1032.59
2016-03-14T01:37:56.453Z,1032.6
2016-03-14T01:38:56.456Z,1032.57
2016-03-14T01:39:56.444Z,1032.55
2016-03-14T01:40:56.430Z,1032.55
2016-03-14T01:41:56.417Z,1032.51
2016-03-14T01:42:56.405Z,1032.52
2016-03-14T01:43:56.391Z,1032.53
2016-03-14T01:44:56.394Z,1032.53
2016-03-14T01:45:56.382Z,1032.5
2016-03-14T01:46:56.368Z,1032.51
2016-03-14T01:47:56.387Z,1032.47
2016-03-14T01:48:56.343Z,1032.47
2016-03-14T01:49:56.329Z,1032.47
2016-03-14T01:50:56.316Z,1032.48
2016-03-14T01:51:56.319Z,1032.5
2016-03-14T01:52:56.306Z,1032.47
2016-03-14T01:53:56.293Z,1032.45
2016-03-14T01:54:56.280Z,1032.42
2016-03-14T01:55:56.268Z,1032.45
2016-03-14T01:56:56.254Z,1032.43
2016-03-14T01:57:56.242Z,1032.4
2016-03-14T01:58:56.245Z,1032.44
2016-03-14T01:59:56.231Z,1032.46
2016-03-14T02:00:56.218Z,1032.46
2016-03-14T02:01:56.206Z,1032.47
2016-03-14T02:02:56.208Z,1032.51
2016-03-14T02:03:56.180Z,1032.45
2016-03-14T02:04:56.183Z,1032.46
2016-03-14T02:05:56.170Z,1032.42
2016-03-14T02:06:56.156Z,1032.44
2016-03-14T02:07:56.144Z,1032.42
2016-03-14T02:08:56.131Z,1032.48
2016-03-14T02:09:56.133Z,1032.51
2016-03-14T02:10:56.105Z,1032.49
2016-03-14T02:11:56.092Z,1032.41
2016-03-14T02:12:56.094Z,1032.43
2016-03-14T02:13:56.082Z,1032.4
2016-03-14T02:14:56.085Z,1032.39
2016-03-14T02:15:56.055Z,1032.34
2016-03-14T02:16:56.043Z,1032.33
2016-03-14T02:17:56.030Z,1032.28
2016-03-14T02:18:56.016Z,1032.33
2016-03-14T02:19:56.019Z,1032.32
2016-03-14T02:20:57.382Z,1032.3
2016-03-14T02:21:56.946Z,1032.3
2016-03-14T02:22:55.981Z,1032.26
2016-03-14T02:23:55.967Z,1032.26
2016-03-14T02:24:55.955Z,1032.23
2016-03-14T02:25:55.957Z,1032.25
2016-03-14T02:26:55.945Z,1032.25
2016-03-14T02:27:55.932Z,1032.28
2016-03-14T02:28:56.747Z,1032.28
2016-03-14T02:29:56.046Z,1032.32
2016-03-14T02:30:55.893Z,1032.32
2016-03-14T02:31:55.880Z,1032.32
2016-03-14T02:32:55.883Z,1032.35
2016-03-14T02:33:55.853Z,1032.32
2016-03-14T02:34:56.904Z,1032.36
2016-03-14T02:36:55.831Z,1032.35
2016-03-14T02:37:55.818Z,1032.36
2016-03-14T02:38:55.805Z,1032.35
2016-03-14T02:39:55.808Z,1032.33
2016-03-14T02:40:55.795Z,1032.32
2016-03-14T02:41:55.797Z,1032.31
2016-03-14T02:42:55.768Z,1032.32
2016-03-14T02:43:55.756Z,1032.35
2016-03-14T02:45:55.730Z,1032.31
2016-03-14T02:46:55.717Z,1032.38
2016-03-14T02:47:55.719Z,1032.36
2016-03-14T02:48:55.699Z,1032.38
2016-03-14T02:49:55.674Z,1032.35
2016-03-14T02:50:55.648Z,1032.38
2016-03-14T02:51:55.622Z,1032.39
2016-03-14T02:52:55.597Z,1032.36
2016-03-14T02:53:55.591Z,1032.36
2016-03-14T02:54:55.575Z,1032.35
2016-03-14T02:55:55.556Z,1032.36
2016-03-14T02:56:55.539Z,1032.32
2016-03-14T02:57:55.522Z,1032.32
2016-03-14T02:58:55.505Z,1032.31
2016-03-14T02:59:55.491Z,1032.32
2016-03-14T03:00:55.477Z,1032.31
2016-03-14T03:01:55.478Z,1032.29
2016-03-14T03:02:55.463Z,1032.22
2016-03-14T03:03:55.450Z,1032.26
2016-03-14T03:04:55.436Z,1032.28
2016-03-14T03:05:55.421Z,1032.29
2016-03-14T03:06:55.408Z,1032.26
2016-03-14T03:07:55.411Z,1032.28
2016-03-14T03:08:55.397Z,1032.25
2016-03-14T03:09:55.385Z,1032.29
2016-03-14T03:10:55.371Z,1032.28
2016-03-14T03:11:55.358Z,1032.25
2016-03-14T03:12:55.345Z,1032.2
2016-03-14T03:13:55.349Z,1032.22
2016-03-14T03:14:55.335Z,1032.23
2016-03-14T03:15:55.322Z,1032.22
2016-03-14T03:16:55.309Z,1032.21
2016-03-14T03:17:55.297Z,1032.23
2016-03-14T03:18:55.299Z,1032.21
2016-03-14T03:19:55.287Z,1032.2
2016-03-14T03:20:55.273Z,1032.2
2016-03-14T03:21:55.260Z,1032.22
2016-03-14T03:22:55.247Z,1032.22
2016-03-14T03:23:55.234Z,1032.27
2016-03-14T03:24:55.221Z,1032.27
2016-03-14T03:25:55.224Z,1032.3
2016-03-14T03:26:55.211Z,1032.32
2016-03-14T03:27:55.198Z,1032.3
2016-03-14T03:28:55.185Z,1032.3
2016-03-14T03:29:55.172Z,1032.29
2016-03-14T03:30:55.159Z,1032.29
2016-03-14T03:31:55.147Z,1032.31
2016-03-14T03:32:55.134Z,1032.3
2016-03-14T03:33:55.136Z,1032.28
2016-03-14T03:34:55.123Z,1032.29
2016-03-14T03:35:55.126Z,1032.31
2016-03-14T03:36:55.098Z,1032.33
2016-03-14T03:37:55.100Z,1032.31
2016-03-14T03:38:56.072Z,1032.32
2016-03-14T03:39:55.074Z,1032.31
2016-03-14T03:40:55.061Z,1032.25
2016-03-14T03:41:55.096Z,1032.25
2016-03-14T03:42:55.036Z,1032.25
2016-03-14T03:43:55.022Z,1032.26
2016-03-14T03:44:55.025Z,1032.23
2016-03-14T03:45:55.012Z,1032.19
2016-03-14T03:46:54.999Z,1032.21
2016-03-14T03:47:54.986Z,1032.19
2016-03-14T03:48:54.974Z,1032.12
2016-03-14T03:49:54.960Z,1032.14
2016-03-14T03:50:54.948Z,1032.17
2016-03-14T03:51:54.950Z,1032.19
2016-03-14T03:52:54.938Z,1032.21
2016-03-14T03:53:54.924Z,1032.16
2016-03-14T03:54:54.912Z,1032.13
2016-03-14T03:55:55.148Z,1032.09
2016-03-14T03:56:54.886Z,1032.03
2016-03-14T03:57:54.888Z,1032.04
2016-03-14T03:58:54.875Z,1032.07
2016-03-14T03:59:54.862Z,1032.06
2016-03-14T04:00:54.850Z,1032.07
2016-03-14T04:01:54.836Z,1032.07
2016-03-14T04:02:55.542Z,1032.05
2016-03-14T04:03:54.825Z,1032
2016-03-14T04:04:54.813Z,1031.98
2016-03-14T04:05:54.800Z,1031.99
2016-03-14T04:06:54.788Z,1032
2016-03-14T04:07:54.790Z,1032.05
2016-03-14T04:08:54.777Z,1032.07
2016-03-14T04:09:54.764Z,1032.09
2016-03-14T04:10:54.752Z,1032.04
2016-03-14T04:11:54.739Z,1032.06
2016-03-14T04:12:54.725Z,1032.01
2016-03-14T04:13:54.712Z,1031.99
2016-03-14T04:14:54.699Z,1032
2016-03-14T04:15:54.702Z,1031.96
2016-03-14T04:16:54.690Z,1031.95
2016-03-14T04:17:54.677Z,1031.94
2016-03-14T04:18:54.664Z,1031.96
2016-03-14T04:19:54.650Z,1031.95
2016-03-14T04:20:54.653Z,1031.97
2016-03-14T04:21:54.640Z,1031.94
2016-03-14T04:22:54.627Z,1031.93
2016-03-14T04:23:54.615Z,1031.93
2016-03-14T04:24:54.602Z,1031.93
2016-03-14T04:25:54.604Z,1031.94
2016-03-14T04:26:54.576Z,1031.95
2016-03-14T04:27:54.579Z,1031.98
2016-03-14T04:28:54.566Z,1031.96
2016-03-14T04:29:54.553Z,1031.98
2016-03-14T04:30:54.540Z,1031.99
2016-03-14T04:31:54.542Z,1032.02
2016-03-14T04:32:54.529Z,1032.01
2016-03-14T04:33:54.517Z,1032.01
2016-03-14T04:34:54.504Z,1032.04
2016-03-14T04:35:54.491Z,1032.05
2016-03-14T04:36:54.478Z,1032.03
2016-03-14T04:37:54.464Z,1032.05
2016-03-14T04:38:54.467Z,1032.04
2016-03-14T04:39:54.455Z,1032.04
2016-03-14T04:40:54.442Z,1032.04
2016-03-14T04:41:54.428Z,1032.05
2016-03-14T04:42:54.416Z,1032.04
2016-03-14T04:43:54.418Z,1032.04
2016-03-14T04:44:54.391Z,1032.02
2016-03-14T04:45:54.393Z,1032
2016-03-14T04:46:54.380Z,1031.97
2016-03-14T04:47:54.366Z,1032.02
2016-03-14T04:48:54.354Z,1032.06
2016-03-14T04:49:54.340Z,1032.04
2016-03-14T04:50:54.343Z,1032.06
2016-03-14T04:51:54.330Z,1032.02
2016-03-14T04:52:54.318Z,1032.03
2016-03-14T04:53:54.304Z,1032.01
2016-03-14T04:54:54.307Z,1032.04
2016-03-14T04:55:54.279Z,1032
2016-03-14T04:57:54.268Z,1032.01
2016-03-14T04:58:54.912Z,1031.99
2016-03-14T04:59:54.851Z,1032
2016-03-14T05:00:54.229Z,1032
2016-03-14T05:01:54.232Z,1031.97
2016-03-14T05:02:54.204Z,1031.96
2016-03-14T05:03:54.207Z,1031.98
2016-03-14T05:04:54.194Z,1032.03
2016-03-14T05:05:54.181Z,1032.04
2016-03-14T05:06:54.167Z,1032
2016-03-14T05:07:54.170Z,1032.02
2016-03-14T05:08:55.017Z,1031.97
2016-03-14T05:09:54.145Z,1032
2016-03-14T05:10:54.131Z,1032.03
2016-03-14T05:11:54.119Z,1032.03
2016-03-14T05:12:54.699Z,1032.06
2016-03-14T05:13:54.749Z,1032.02
2016-03-14T05:14:54.080Z,1031.98
2016-03-14T05:15:54.083Z,1031.96
2016-03-14T05:16:54.069Z,1031.97
2016-03-14T05:17:54.057Z,1031.98
2016-03-14T05:18:54.043Z,1031.97
2016-03-14T05:19:54.031Z,1031.96
2016-03-14T05:20:54.033Z,1032
2016-03-14T05:21:54.021Z,1032.02
2016-03-14T05:22:54.913Z,1031.99
2016-03-14T05:23:53.995Z,1032
2016-03-14T05:24:54.387Z,1032.07
2016-03-14T05:25:53.968Z,1032.08
2016-03-14T05:26:53.956Z,1032.05
2016-03-14T05:27:53.943Z,1032.07
2016-03-14T05:28:53.945Z,1032.07
2016-03-14T05:29:53.932Z,1032.09
2016-03-14T05:30:53.919Z,1032.09
2016-03-14T05:31:53.906Z,1032.1
2016-03-14T05:32:53.894Z,1032.09
2016-03-14T05:33:53.897Z,1032.09
2016-03-14T05:34:53.883Z,1032.08
2016-03-14T05:35:53.870Z,1032.1
2016-03-14T05:36:53.858Z,1032.09
2016-03-14T05:37:53.845Z,1032.14
2016-03-14T05:38:53.832Z,1032.16
2016-03-14T05:39:53.819Z,1032.15
2016-03-14T05:40:53.806Z,1032.16
2016-03-14T05:41:53.808Z,1032.14
2016-03-14T05:42:53.796Z,1032.15
2016-03-14T05:43:53.783Z,1032.12
2016-03-14T05:44:53.770Z,1032.13
2016-03-14T05:45:53.757Z,1032.18
2016-03-14T05:46:53.744Z,1032.18
2016-03-14T05:47:53.746Z,1032.18
2016-03-14T05:48:53.733Z,1032.21
2016-03-14T05:49:53.705Z,1032.21
2016-03-14T05:50:53.707Z,1032.17
2016-03-14T05:51:53.695Z,1032.18
2016-03-14T05:52:53.682Z,1032.18
2016-03-14T05:53:53.669Z,1032.15
2016-03-14T05:54:53.671Z,1032.19
2016-03-14T05:55:53.643Z,1032.18
2016-03-14T05:56:53.646Z,1032.17
2016-03-14T05:57:53.632Z,1032.16
2016-03-14T05:58:53.620Z,1032.17
2016-03-14T05:59:53.606Z,1032.21
2016-03-14T06:00:53.609Z,1032.19
2016-03-14T06:01:53.597Z,1032.22
2016-03-14T06:02:53.600Z,1032.19
2016-03-14T06:03:53.570Z,1032.2
2016-03-14T06:04:53.558Z,1032.24
2016-03-14T06:05:53.544Z,1032.25
2016-03-14T06:06:53.537Z,1032.31
2016-03-14T06:07:53.525Z,1032.28
2016-03-14T06:08:53.511Z,1032.29
2016-03-14T06:09:53.514Z,1032.28
2016-03-14T06:10:53.500Z,1032.27
2016-03-14T06:11:53.488Z,1032.27
2016-03-14T06:12:53.474Z,1032.28
2016-03-14T06:13:53.463Z,1032.31
2016-03-14T06:14:53.449Z,1032.3
2016-03-14T06:15:53.436Z,1032.3
2016-03-14T06:16:53.423Z,1032.27
2016-03-14T06:17:53.426Z,1032.25
2016-03-14T06:18:53.412Z,1032.25
2016-03-14T06:19:53.697Z,1032.24
2016-03-14T06:20:53.387Z,1032.22
2016-03-14T06:21:53.390Z,1032.24
2016-03-14T06:22:53.361Z,1032.27
2016-03-14T06:23:53.364Z,1032.25
2016-03-14T06:24:53.351Z,1032.24
2016-03-14T06:25:53.338Z,1032.27
2016-03-14T06:26:53.325Z,1032.25
2016-03-14T06:27:53.328Z,1032.26
2016-03-14T06:28:53.314Z,1032.23
2016-03-14T06:29:53.301Z,1032.26
2016-03-14T06:30:53.726Z,1032.26
2016-03-14T06:31:53.292Z,1032.19
2016-03-14T06:32:53.279Z,1032.2
2016-03-14T06:33:54.125Z,1032.2
2016-03-14T06:34:53.456Z,1032.19
2016-03-14T06:35:53.239Z,1032.19
2016-03-14T06:36:53.227Z,1032.18
2016-03-14T06:37:53.230Z,1032.16
2016-03-14T06:38:53.217Z,1032.14
2016-03-14T06:39:53.203Z,1032.14
2016-03-14T06:40:53.191Z,1032.18
2016-03-14T06:41:53.177Z,1032.21
2016-03-14T06:42:53.181Z,1032.26
2016-03-14T06:43:53.168Z,1032.26
2016-03-14T06:44:53.155Z,1032.25
2016-03-14T06:45:53.141Z,1032.24
2016-03-14T06:46:53.144Z,1032.28
2016-03-14T06:47:53.131Z,1032.31
2016-03-14T06:48:53.118Z,1032.26
2016-03-14T06:49:53.121Z,1032.25
2016-03-14T06:50:53.108Z,1032.28
2016-03-14T06:51:53.095Z,1032.21
2016-03-14T06:52:53.098Z,1032.2
2016-03-14T06:53:53.084Z,1032.17
2016-03-14T06:54:53.072Z,1032.17
2016-03-14T06:55:53.075Z,1032.23
2016-03-14T06:56:53.046Z,1032.18
2016-03-14T06:57:53.048Z,1032.15
2016-03-14T06:58:53.036Z,1032.21
2016-03-14T06:59:53.023Z,1032.23
2016-03-14T07:00:53.026Z,1032.23
2016-03-14T07:01:53.013Z,1032.24
2016-03-14T07:02:53.000Z,1032.16
2016-03-14T07:03:52.987Z,1032.2
2016-03-14T07:04:52.989Z,1032.23
2016-03-14T07:05:52.977Z,1032.21
2016-03-14T07:06:52.964Z,1032.23
2016-03-14T07:07:52.951Z,1032.2
2016-03-14T07:08:52.954Z,1032.22
2016-03-14T07:09:52.941Z,1032.24
2016-03-14T07:10:52.959Z,1032.23
2016-03-14T07:11:52.930Z,1032.28
2016-03-14T07:12:52.933Z,1032.27
2016-03-14T07:13:52.919Z,1032.37
2016-03-14T07:14:52.923Z,1032.33
2016-03-14T07:15:52.910Z,1032.32
2016-03-14T07:16:52.913Z,1032.36
2016-03-14T07:17:52.899Z,1032.36
2016-03-14T07:18:52.903Z,1032.36
2016-03-14T07:19:52.905Z,1032.37
2016-03-14T07:20:52.893Z,1032.33
2016-03-14T07:21:52.895Z,1032.4
2016-03-14T07:22:52.882Z,1032.41
2016-03-14T07:23:52.884Z,1032.47
2016-03-14T07:24:52.888Z,1032.53
2016-03-14T07:25:52.890Z,1032.53
2016-03-14T07:26:52.877Z,1032.56
2016-03-14T07:27:52.879Z,1032.5
2016-03-14T07:28:52.882Z,1032.48
2016-03-14T07:29:52.869Z,1032.54
2016-03-14T07:30:52.872Z,1032.64
2016-03-14T07:31:52.875Z,1032.65
2016-03-14T07:32:52.862Z,1032.62
2016-03-14T07:33:52.865Z,1032.44
2016-03-14T07:34:54.398Z,1032.43
2016-03-14T07:35:52.870Z,1032.26
2016-03-14T07:36:52.857Z,1032.26
2016-03-14T07:37:52.876Z,1032.22
2016-03-14T07:38:52.862Z,1032.19
2016-03-14T07:39:52.880Z,1032.25
2016-03-14T07:40:52.899Z,1032.2
2016-03-14T07:41:52.855Z,1032.21
2016-03-14T07:42:52.858Z,1032.17
2016-03-14T07:43:52.861Z,1032.2
2016-03-14T07:44:54.082Z,1032.21
2016-03-14T07:45:54.256Z,1032.26
2016-03-14T07:46:52.852Z,1032.36
2016-03-14T07:47:52.855Z,1032.32
2016-03-14T07:48:52.858Z,1032.4
2016-03-14T07:49:53.392Z,1032.21
2016-03-14T07:50:52.910Z,1032.29
2016-03-14T07:51:52.851Z,1032.37
2016-03-14T07:53:53.497Z,1032.23
2016-03-14T07:54:52.843Z,1032.34
2016-03-14T07:55:52.846Z,1032.4
2016-03-14T07:56:52.848Z,1032.38
2016-03-14T07:57:52.835Z,1032.39
2016-03-14T07:58:52.837Z,1032.36
2016-03-14T07:59:52.841Z,1032.36
2016-03-14T08:00:53.078Z,1032.17
2016-03-14T08:01:52.831Z,1032.22
2016-03-14T08:02:52.880Z,1032.14
2016-03-14T08:03:52.836Z,1032.27
2016-03-14T08:04:52.839Z,1032.17
2016-03-14T08:05:52.842Z,1032.23
2016-03-14T08:06:52.825Z,1032.12
2016-03-14T08:07:52.828Z,1032.15
2016-03-14T08:08:52.830Z,1032.12
2016-03-14T08:09:52.834Z,1032.14
2016-03-14T08:10:52.836Z,1032.22
2016-03-14T08:11:52.839Z,1032.22
2016-03-14T08:12:52.825Z,1032.26
2016-03-14T08:13:52.828Z,1032.26
2016-03-14T08:14:52.830Z,1032.2
2016-03-14T08:15:52.818Z,1032.19
2016-03-14T08:16:52.821Z,1032.18
2016-03-14T08:17:52.824Z,1032.16
2016-03-14T08:18:52.826Z,1032.16
2016-03-14T08:19:52.829Z,1032.17
2016-03-14T08:20:52.815Z,1032.12
2016-03-14T08:21:52.803Z,1032.08
2016-03-14T08:22:52.806Z,1032.09
2016-03-14T08:23:52.809Z,1032.12
2016-03-14T08:24:52.795Z,1032.08
2016-03-14T08:25:52.798Z,1032.07
2016-03-14T08:26:52.801Z,1032.04
2016-03-14T08:27:52.788Z,1032.08
2016-03-14T08:28:52.790Z,1032.07
2016-03-14T08:29:52.793Z,1032.06
2016-03-14T08:30:52.780Z,1032.06
2016-03-14T08:31:52.783Z,1032.03
2016-03-14T08:32:52.786Z,1032.01
2016-03-14T08:33:52.773Z,1032.02
2016-03-14T08:34:52.775Z,1032.03
2016-03-14T08:35:52.778Z,1032.04
2016-03-14T08:36:52.765Z,1031.99
2016-03-14T08:37:52.752Z,1031.99
2016-03-14T08:38:52.755Z,1031.96
2016-03-14T08:39:52.742Z,1031.98
2016-03-14T08:40:52.745Z,1032
2016-03-14T08:41:52.748Z,1032
2016-03-14T08:42:52.735Z,1031.99
2016-03-14T08:43:52.738Z,1031.91
2016-03-14T08:44:52.725Z,1032.02
2016-03-14T08:45:52.727Z,1031.88
2016-03-14T08:46:52.714Z,1031.94
2016-03-14T08:47:52.716Z,1031.92
2016-03-14T08:48:52.719Z,1031.93
2016-03-14T08:49:52.707Z,1031.92
2016-03-14T08:50:52.710Z,1031.88
2016-03-14T08:51:52.696Z,1031.92
2016-03-14T08:52:52.699Z,1031.93
2016-03-14T08:54:52.688Z,1031.98
2016-03-14T08:55:52.676Z,1032.03
2016-03-14T08:56:52.679Z,1032.01
2016-03-14T08:57:52.775Z,1031.79
2016-03-14T08:58:52.668Z,1032.11
2016-03-14T08:59:53.124Z,1032.09
2016-03-14T09:00:52.659Z,1032.14
2016-03-14T09:01:52.661Z,1032.15
2016-03-14T09:02:52.679Z,1032.15
2016-03-14T09:03:52.634Z,1032.21
2016-03-14T09:04:52.637Z,1032.16
2016-03-14T09:05:52.640Z,1032.12
2016-03-14T09:06:52.643Z,1032.15
2016-03-14T09:07:52.630Z,1032.1
2016-03-14T09:08:52.633Z,1032.16
2016-03-14T09:09:52.619Z,1032.05
2016-03-14T09:10:52.622Z,1032.03
2016-03-14T09:11:52.609Z,1031.95
2016-03-14T09:12:52.627Z,1031.93
2016-03-14T09:13:52.614Z,1031.83
2016-03-14T09:14:53.305Z,1031.87
2016-03-14T09:15:52.605Z,1031.9
2016-03-14T09:16:52.591Z,1031.84
2016-03-14T09:17:52.594Z,1031.79
2016-03-14T09:18:52.596Z,1031.77
2016-03-14T09:20:53.524Z,1031.76
2016-03-14T09:21:52.574Z,1031.71
2016-03-14T09:22:52.576Z,1031.69
2016-03-14T09:23:52.579Z,1031.71
2016-03-14T09:24:52.565Z,1031.69
2016-03-14T09:25:52.569Z,1031.72
2016-03-14T09:26:52.571Z,1031.68
2016-03-14T09:27:52.559Z,1031.72
2016-03-14T09:28:52.561Z,1031.73
2016-03-14T09:29:52.548Z,1031.74
2016-03-14T09:30:52.551Z,1031.73
2016-03-14T09:31:52.537Z,1031.71
2016-03-14T09:32:52.541Z,1031.66
2016-03-14T09:33:52.543Z,1031.6
2016-03-14T09:34:52.546Z,1031.59
2016-03-14T09:35:52.533Z,1031.62
2016-03-14T09:36:52.536Z,1031.59
2016-03-14T09:37:52.523Z,1031.59
2016-03-14T09:38:52.526Z,1031.57
2016-03-14T09:39:52.513Z,1031.53
2016-03-14T09:40:52.516Z,1031.5
2016-03-14T09:41:52.503Z,1031.44
2016-03-14T09:42:52.506Z,1031.39
2016-03-14T09:43:52.508Z,1031.37
2016-03-14T09:44:52.495Z,1031.35
2016-03-14T09:45:52.483Z,1031.29
2016-03-14T09:46:52.500Z,1031.2
2016-03-14T09:47:52.488Z,1031.2
2016-03-14T09:48:52.474Z,1031.13
2016-03-14T09:49:52.477Z,1031.11
2016-03-14T09:50:52.480Z,1031.11
2016-03-14T09:51:52.466Z,1031.14
2016-03-14T09:52:52.470Z,1031.1
2016-03-14T09:53:52.519Z,1031.1
2016-03-14T09:54:52.460Z,1031.04
2016-03-14T09:55:52.446Z,1031
2016-03-14T09:56:52.449Z,1031.03
2016-03-14T09:57:52.436Z,1030.97
2016-03-14T09:58:52.439Z,1030.94
2016-03-14T09:59:52.426Z,1030.98
2016-03-14T10:00:52.429Z,1030.96
2016-03-14T10:01:52.432Z,1030.91
2016-03-14T10:02:52.418Z,1030.96
2016-03-14T10:03:52.406Z,1030.94
2016-03-14T10:04:52.409Z,1030.93
2016-03-14T10:05:52.395Z,1030.91
2016-03-14T10:06:52.387Z,1030.86
2016-03-14T10:07:52.394Z,1030.84
2016-03-14T10:08:52.383Z,1030.85
2016-03-14T10:09:52.385Z,1030.86
2016-03-14T10:10:52.372Z,1030.83
2016-03-14T10:11:52.374Z,1030.84
2016-03-14T10:12:52.361Z,1030.79
2016-03-14T10:13:52.364Z,1030.75
2016-03-14T10:14:52.352Z,1030.73
2016-03-14T10:15:52.354Z,1030.71
2016-03-14T10:16:52.341Z,1030.71
2016-03-14T10:17:52.999Z,1030.71
2016-03-14T10:18:52.330Z,1030.73
2016-03-14T10:19:52.333Z,1030.74
2016-03-14T10:20:52.320Z,1030.73
2016-03-14T10:21:52.324Z,1030.71
2016-03-14T10:22:52.310Z,1030.69
2016-03-14T10:23:52.313Z,1030.62
2016-03-14T10:24:52.987Z,1030.63
2016-03-14T10:25:52.303Z,1030.66
2016-03-14T10:26:52.868Z,1030.58
2016-03-14T10:27:52.276Z,1030.63
2016-03-14T10:28:52.483Z,1030.54
2016-03-14T10:29:52.829Z,1030.56
2016-03-14T10:30:52.270Z,1030.52
2016-03-14T10:31:52.256Z,1030.51
2016-03-14T10:32:52.259Z,1030.49
2016-03-14T10:33:52.246Z,1030.49
2016-03-14T10:34:52.249Z,1030.5
2016-03-14T10:35:52.236Z,1030.48
2016-03-14T10:36:52.238Z,1030.43
2016-03-14T10:38:52.228Z,1030.37
2016-03-14T10:39:52.216Z,1030.34
2016-03-14T10:40:52.202Z,1030.31
2016-03-14T10:41:52.205Z,1030.28
2016-03-14T10:42:52.192Z,1030.24
2016-03-14T10:43:52.195Z,1030.21
2016-03-14T10:44:52.182Z,1030.24
2016-03-14T10:45:52.185Z,1030.24
2016-03-14T10:46:52.172Z,1030.19
2016-03-14T10:47:52.158Z,1030.19
2016-03-14T10:48:52.161Z,1030.28
2016-03-14T10:49:52.149Z,1030.24
2016-03-14T10:50:52.151Z,1030.22
2016-03-14T10:51:52.138Z,1030.21
2016-03-14T10:52:52.140Z,1030.23
2016-03-14T10:53:52.128Z,1030.21
2016-03-14T10:54:52.115Z,1030.18
2016-03-14T10:55:52.117Z,1030.1
2016-03-14T10:56:52.121Z,1030.15
2016-03-14T10:57:52.107Z,1030.05
2016-03-14T10:58:52.095Z,1030.07
2016-03-14T10:59:52.097Z,1030.05
2016-03-14T11:00:52.101Z,1030.09
2016-03-14T11:01:52.088Z,1030.1
2016-03-14T11:02:52.074Z,1030.04
2016-03-14T11:03:52.077Z,1030.02
2016-03-14T11:04:52.065Z,1029.99
2016-03-14T11:05:52.052Z,1030.01
2016-03-14T11:06:52.054Z,1030.01
2016-03-14T11:07:52.042Z,1030.01
2016-03-14T11:08:52.045Z,1029.95
2016-03-14T11:09:52.031Z,1030.01
2016-03-14T11:10:52.034Z,1029.96
2016-03-14T11:11:52.020Z,1029.99
2016-03-14T11:12:52.008Z,1030.02
2016-03-14T11:13:52.011Z,1029.99
2016-03-14T11:14:52.014Z,1029.95
2016-03-14T11:15:52.001Z,1029.98
2016-03-14T11:16:51.987Z,1029.94
2016-03-14T11:17:51.990Z,1029.97
2016-03-14T11:18:51.977Z,1029.91
2016-03-14T11:19:51.980Z,1029.91
2016-03-14T11:20:51.967Z,1029.86
2016-03-14T11:21:51.973Z,1029.83
2016-03-14T11:22:51.960Z,1029.76
2016-03-14T11:23:51.946Z,1029.78
2016-03-14T11:24:51.949Z,1029.76
2016-03-14T11:25:51.936Z,1029.79
2016-03-14T11:26:51.939Z,1029.72
2016-03-14T11:27:51.926Z,1029.74
2016-03-14T11:28:51.929Z,1029.74
2016-03-14T11:29:51.916Z,1029.65
2016-03-14T11:30:51.918Z,1029.7
2016-03-14T11:31:51.906Z,1029.69
2016-03-14T11:32:52.737Z,1029.62
2016-03-14T11:33:52.083Z,1029.63
2016-03-14T11:34:52.039Z,1029.61
2016-03-14T11:35:51.885Z,1029.62
2016-03-14T11:36:51.873Z,1029.59
2016-03-14T11:37:51.875Z,1029.57
2016-03-14T11:38:51.862Z,1029.52
2016-03-14T11:39:51.849Z,1029.55
2016-03-14T11:40:51.851Z,1029.55
2016-03-14T11:41:51.855Z,1029.51
2016-03-14T11:42:51.842Z,1029.48
2016-03-14T11:43:51.828Z,1029.44
2016-03-14T11:44:52.815Z,1029.47
2016-03-14T11:45:51.818Z,1029.46
2016-03-14T11:46:51.806Z,1029.46
2016-03-14T11:48:51.795Z,1029.48
2016-03-14T11:49:52.595Z,1029.53
2016-03-14T11:50:52.145Z,1029.54
2016-03-14T11:51:51.788Z,1029.51
2016-03-14T11:52:51.775Z,1029.51
2016-03-14T11:53:51.777Z,1029.53
2016-03-14T11:54:51.757Z,1029.49
2016-03-14T11:55:51.751Z,1029.53
2016-03-14T11:56:51.743Z,1029.57
2016-03-14T11:57:51.705Z,1029.54
2016-03-14T11:58:51.688Z,1029.51
2016-03-14T11:59:52.138Z,1029.48
2016-03-14T12:00:51.669Z,1029.46
2016-03-14T12:01:51.668Z,1029.41
2016-03-14T12:02:51.760Z,1029.41
2016-03-14T12:03:51.634Z,1029.42
2016-03-14T12:04:51.635Z,1029.42
2016-03-14T12:05:51.636Z,1029.29
2016-03-14T12:06:51.623Z,1029.32
2016-03-14T12:07:51.625Z,1029.33
2016-03-14T12:08:51.610Z,1029.34
2016-03-14T12:09:51.597Z,1029.35
2016-03-14T12:10:51.600Z,1029.34
2016-03-14T12:11:51.586Z,1029.35
2016-03-14T12:12:51.573Z,1029.36
2016-03-14T12:13:51.574Z,1029.34
2016-03-14T12:14:51.562Z,1029.34
2016-03-14T12:15:51.564Z,1029.33
2016-03-14T12:16:51.567Z,1029.29
2016-03-14T12:17:51.553Z,1029.29